sensor_id;sensor_type;location;lat;lon;timestamp;P1;durP1;ratioP1;P2;durP2;ratioP2
21274;SDS011;36472;52.170;20.884;2022-07-29T00:01:46;7.65;;;3.85;;
21274;SDS011;36472;52.170;20.884;2022-07-29T00:04:15;6.43;;;4.20;;
21274;SDS011;36472;52.170;20.884;2022-07-29T00:06:44;6.32;;;3.72;;
21274;SDS011;36472;52.170;20.884;2022-07-29T00:09:13;5.10;;;3.42;;
21274;SDS011;36472;52.170;20.884;2022-07-29T00:11:43;6.82;;;3.67;;
21274;SDS011;36472;52.170;20.884;2022-07-29T00:14:12;6.07;;;4.18;;
21274;SDS011;36472;52.170;20.884;2022-07-29T00:16:41;5.80;;;4.00;;
21274;SDS011;36472;52.170;20.884;2022-07-29T00:19:09;5.00;;;3.92;;
21274;SDS011;36472;52.170;20.884;2022-07-29T00:21:38;6.07;;;3.80;;
21274;SDS011;36472;52.170;20.884;2022-07-29T00:24:07;6.03;;;3.75;;
21274;SDS011;36472;52.170;20.884;2022-07-29T00:26:36;4.18;;;3.67;;
21274;SDS011;36472;52.170;20.884;2022-07-29T00:29:06;4.50;;;3.75;;
21274;SDS011;36472;52.170;20.884;2022-07-29T00:31:55;7.25;;;4.55;;
21274;SDS011;36472;52.170;20.884;2022-07-29T00:34:24;5.43;;;3.95;;
21274;SDS011;36472;52.170;20.884;2022-07-29T00:37:09;7.13;;;4.22;;
21274;SDS011;36472;52.170;20.884;2022-07-29T00:39:38;7.03;;;4.55;;
21274;SDS011;36472;52.170;20.884;2022-07-29T00:42:07;7.28;;;4.90;;
21274;SDS011;36472;52.170;20.884;2022-07-29T00:44:38;5.63;;;4.00;;
21274;SDS011;36472;52.170;20.884;2022-07-29T00:47:08;5.38;;;3.75;;
21274;SDS011;36472;52.170;20.884;2022-07-29T00:49:38;5.63;;;4.18;;
21274;SDS011;36472;52.170;20.884;2022-07-29T00:52:09;7.90;;;4.30;;
21274;SDS011;36472;52.170;20.884;2022-07-29T00:54:42;7.40;;;3.80;;
21274;SDS011;36472;52.170;20.884;2022-07-29T00:57:12;5.28;;;3.67;;
21274;SDS011;36472;52.170;20.884;2022-07-29T00:59:42;4.40;;;3.38;;
21274;SDS011;36472;52.170;20.884;2022-07-29T01:02:10;5.88;;;3.65;;
21274;SDS011;36472;52.170;20.884;2022-07-29T01:04:39;6.90;;;4.03;;
21274;SDS011;36472;52.170;20.884;2022-07-29T01:07:09;4.10;;;3.45;;
21274;SDS011;36472;52.170;20.884;2022-07-29T01:09:39;4.93;;;3.85;;
21274;SDS011;36472;52.170;20.884;2022-07-29T01:12:13;6.07;;;3.72;;
21274;SDS011;36472;52.170;20.884;2022-07-29T01:14:50;4.68;;;3.38;;
21274;SDS011;36472;52.170;20.884;2022-07-29T01:17:24;5.70;;;3.38;;
21274;SDS011;36472;52.170;20.884;2022-07-29T01:20:01;5.82;;;3.05;;
21274;SDS011;36472;52.170;20.884;2022-07-29T01:22:46;4.90;;;3.30;;
21274;SDS011;36472;52.170;20.884;2022-07-29T01:25:42;5.03;;;3.28;;
21274;SDS011;36472;52.170;20.884;2022-07-29T01:31:36;4.55;;;2.90;;
21274;SDS011;36472;52.170;20.884;2022-07-29T01:34:27;6.63;;;3.20;;
21274;SDS011;36472;52.170;20.884;2022-07-29T01:37:08;6.28;;;3.20;;
21274;SDS011;36472;52.170;20.884;2022-07-29T01:39:47;4.35;;;3.00;;
21274;SDS011;36472;52.170;20.884;2022-07-29T01:42:20;4.25;;;2.55;;
21274;SDS011;36472;52.170;20.884;2022-07-29T01:45:00;4.43;;;3.15;;
21274;SDS011;36472;52.170;20.884;2022-07-29T01:47:37;5.90;;;3.00;;
21274;SDS011;36472;52.170;20.884;2022-07-29T01:50:12;3.85;;;2.60;;
21274;SDS011;36472;52.170;20.884;2022-07-29T01:52:46;5.85;;;3.08;;
21274;SDS011;36472;52.170;20.884;2022-07-29T01:55:24;6.38;;;3.00;;
21274;SDS011;36472;52.170;20.884;2022-07-29T01:57:59;3.50;;;2.58;;
21274;SDS011;36472;52.170;20.884;2022-07-29T02:00:34;3.47;;;2.50;;
21274;SDS011;36472;52.170;20.884;2022-07-29T02:03:05;3.65;;;2.50;;
21274;SDS011;36472;52.170;20.884;2022-07-29T02:05:39;3.45;;;2.60;;
21274;SDS011;36472;52.170;20.884;2022-07-29T02:08:13;5.57;;;2.65;;
21274;SDS011;36472;52.170;20.884;2022-07-29T02:10:44;4.05;;;2.20;;
21274;SDS011;36472;52.170;20.884;2022-07-29T02:13:16;3.28;;;2.33;;
21274;SDS011;36472;52.170;20.884;2022-07-29T02:15:52;2.05;;;1.85;;
21274;SDS011;36472;52.170;20.884;2022-07-29T02:18:25;4.53;;;2.65;;
21274;SDS011;36472;52.170;20.884;2022-07-29T02:20:57;6.13;;;2.63;;
21274;SDS011;36472;52.170;20.884;2022-07-29T02:23:28;4.28;;;2.05;;
21274;SDS011;36472;52.170;20.884;2022-07-29T02:26:17;3.03;;;1.98;;
21274;SDS011;36472;52.170;20.884;2022-07-29T02:28:48;3.80;;;2.10;;
21274;SDS011;36472;52.170;20.884;2022-07-29T02:31:23;2.83;;;2.10;;
21274;SDS011;36472;52.170;20.884;2022-07-29T02:34:02;3.38;;;2.30;;
21274;SDS011;36472;52.170;20.884;2022-07-29T02:36:36;3.95;;;1.90;;
21274;SDS011;36472;52.170;20.884;2022-07-29T02:39:07;3.08;;;1.98;;
21274;SDS011;36472;52.170;20.884;2022-07-29T02:41:40;3.05;;;2.08;;
21274;SDS011;36472;52.170;20.884;2022-07-29T02:44:13;3.45;;;2.30;;
21274;SDS011;36472;52.170;20.884;2022-07-29T02:46:49;2.42;;;1.98;;
21274;SDS011;36472;52.170;20.884;2022-07-29T02:49:29;3.20;;;2.10;;
21274;SDS011;36472;52.170;20.884;2022-07-29T02:52:05;3.38;;;1.98;;
21274;SDS011;36472;52.170;20.884;2022-07-29T02:54:41;3.85;;;2.42;;
21274;SDS011;36472;52.170;20.884;2022-07-29T02:57:17;2.45;;;1.98;;
21274;SDS011;36472;52.170;20.884;2022-07-29T02:59:56;2.67;;;1.80;;
21274;SDS011;36472;52.170;20.884;2022-07-29T03:02:33;4.13;;;1.85;;
21274;SDS011;36472;52.170;20.884;2022-07-29T03:05:06;4.35;;;1.92;;
21274;SDS011;36472;52.170;20.884;2022-07-29T03:07:43;3.15;;;1.85;;
21274;SDS011;36472;52.170;20.884;2022-07-29T03:10:17;5.15;;;2.33;;
21274;SDS011;36472;52.170;20.884;2022-07-29T03:12:46;2.72;;;1.90;;
21274;SDS011;36472;52.170;20.884;2022-07-29T03:15:16;3.28;;;1.80;;
21274;SDS011;36472;52.170;20.884;2022-07-29T03:17:47;3.13;;;2.10;;
21274;SDS011;36472;52.170;20.884;2022-07-29T03:20:17;2.58;;;1.95;;
21274;SDS011;36472;52.170;20.884;2022-07-29T03:22:46;3.63;;;1.70;;
21274;SDS011;36472;52.170;20.884;2022-07-29T03:25:15;3.75;;;2.00;;
21274;SDS011;36472;52.170;20.884;2022-07-29T03:27:47;4.63;;;1.85;;
21274;SDS011;36472;52.170;20.884;2022-07-29T03:30:16;2.25;;;1.60;;
21274;SDS011;36472;52.170;20.884;2022-07-29T03:32:49;2.47;;;1.60;;
21274;SDS011;36472;52.170;20.884;2022-07-29T03:35:19;3.17;;;1.73;;
21274;SDS011;36472;52.170;20.884;2022-07-29T03:37:48;2.28;;;1.60;;
21274;SDS011;36472;52.170;20.884;2022-07-29T03:40:18;2.63;;;1.70;;
21274;SDS011;36472;52.170;20.884;2022-07-29T03:42:53;3.22;;;1.90;;
21274;SDS011;36472;52.170;20.884;2022-07-29T03:45:23;1.83;;;1.60;;
21274;SDS011;36472;52.170;20.884;2022-07-29T03:47:57;3.45;;;1.67;;
21274;SDS011;36472;52.170;20.884;2022-07-29T03:50:32;4.63;;;1.90;;
21274;SDS011;36472;52.170;20.884;2022-07-29T03:53:03;3.33;;;1.60;;
21274;SDS011;36472;52.170;20.884;2022-07-29T03:55:35;2.30;;;1.80;;
21274;SDS011;36472;52.170;20.884;2022-07-29T03:58:09;1.70;;;1.48;;
21274;SDS011;36472;52.170;20.884;2022-07-29T04:00:40;2.92;;;1.70;;
21274;SDS011;36472;52.170;20.884;2022-07-29T04:03:12;2.83;;;1.65;;
21274;SDS011;36472;52.170;20.884;2022-07-29T04:05:41;3.30;;;1.40;;
21274;SDS011;36472;52.170;20.884;2022-07-29T04:08:10;3.72;;;1.67;;
21274;SDS011;36472;52.170;20.884;2022-07-29T04:10:39;4.75;;;1.98;;
21274;SDS011;36472;52.170;20.884;2022-07-29T04:13:07;2.75;;;1.70;;
21274;SDS011;36472;52.170;20.884;2022-07-29T04:15:36;4.65;;;1.90;;
21274;SDS011;36472;52.170;20.884;2022-07-29T04:18:05;3.58;;;1.80;;
21274;SDS011;36472;52.170;20.884;2022-07-29T04:20:35;6.00;;;1.95;;
21274;SDS011;36472;52.170;20.884;2022-07-29T04:23:03;1.92;;;1.50;;
21274;SDS011;36472;52.170;20.884;2022-07-29T04:25:32;2.38;;;2.08;;
21274;SDS011;36472;52.170;20.884;2022-07-29T04:28:04;3.08;;;1.70;;
21274;SDS011;36472;52.170;20.884;2022-07-29T04:30:33;3.20;;;1.80;;
21274;SDS011;36472;52.170;20.884;2022-07-29T04:33:04;3.08;;;1.65;;
21274;SDS011;36472;52.170;20.884;2022-07-29T04:35:36;2.35;;;1.52;;
21274;SDS011;36472;52.170;20.884;2022-07-29T04:38:18;3.10;;;1.67;;
21274;SDS011;36472;52.170;20.884;2022-07-29T04:40:46;3.28;;;1.90;;
21274;SDS011;36472;52.170;20.884;2022-07-29T04:43:16;3.28;;;1.70;;
21274;SDS011;36472;52.170;20.884;2022-07-29T04:45:49;4.00;;;1.77;;
21274;SDS011;36472;52.170;20.884;2022-07-29T04:48:18;2.70;;;1.50;;
21274;SDS011;36472;52.170;20.884;2022-07-29T04:50:55;2.88;;;1.63;;
21274;SDS011;36472;52.170;20.884;2022-07-29T04:53:24;3.95;;;1.50;;
21274;SDS011;36472;52.170;20.884;2022-07-29T04:55:53;2.75;;;1.70;;
21274;SDS011;36472;52.170;20.884;2022-07-29T04:58:22;3.33;;;1.67;;
21274;SDS011;36472;52.170;20.884;2022-07-29T05:00:51;2.67;;;1.30;;
21274;SDS011;36472;52.170;20.884;2022-07-29T05:03:19;3.22;;;1.58;;
21274;SDS011;36472;52.170;20.884;2022-07-29T05:05:48;2.33;;;1.60;;
21274;SDS011;36472;52.170;20.884;2022-07-29T05:08:18;2.97;;;1.70;;
21274;SDS011;36472;52.170;20.884;2022-07-29T05:10:47;2.72;;;1.30;;
21274;SDS011;36472;52.170;20.884;2022-07-29T05:13:16;3.67;;;1.60;;
21274;SDS011;36472;52.170;20.884;2022-07-29T05:15:45;1.90;;;1.70;;
21274;SDS011;36472;52.170;20.884;2022-07-29T05:18:13;2.45;;;1.45;;
21274;SDS011;36472;52.170;20.884;2022-07-29T05:20:42;3.15;;;1.80;;
21274;SDS011;36472;52.170;20.884;2022-07-29T05:23:11;4.80;;;1.70;;
21274;SDS011;36472;52.170;20.884;2022-07-29T05:25:41;2.30;;;1.23;;
21274;SDS011;36472;52.170;20.884;2022-07-29T05:28:11;2.25;;;1.20;;
21274;SDS011;36472;52.170;20.884;2022-07-29T05:30:39;3.22;;;1.33;;
21274;SDS011;36472;52.170;20.884;2022-07-29T05:33:08;3.28;;;1.40;;
21274;SDS011;36472;52.170;20.884;2022-07-29T05:35:57;2.15;;;1.55;;
21274;SDS011;36472;52.170;20.884;2022-07-29T05:38:26;3.67;;;1.30;;
21274;SDS011;36472;52.170;20.884;2022-07-29T05:40:58;1.67;;;1.20;;
21274;SDS011;36472;52.170;20.884;2022-07-29T05:43:27;1.88;;;1.20;;
21274;SDS011;36472;52.170;20.884;2022-07-29T05:45:56;2.58;;;1.45;;
21274;SDS011;36472;52.170;20.884;2022-07-29T05:48:25;2.70;;;1.70;;
21274;SDS011;36472;52.170;20.884;2022-07-29T05:50:54;3.55;;;1.50;;
21274;SDS011;36472;52.170;20.884;2022-07-29T05:53:23;4.43;;;1.85;;
21274;SDS011;36472;52.170;20.884;2022-07-29T05:55:51;3.45;;;1.55;;
21274;SDS011;36472;52.170;20.884;2022-07-29T05:58:22;2.42;;;1.13;;
21274;SDS011;36472;52.170;20.884;2022-07-29T06:00:51;3.90;;;1.40;;
21274;SDS011;36472;52.170;20.884;2022-07-29T06:03:19;4.22;;;1.40;;
21274;SDS011;36472;52.170;20.884;2022-07-29T06:05:48;4.10;;;1.13;;
21274;SDS011;36472;52.170;20.884;2022-07-29T06:08:17;2.78;;;1.30;;
21274;SDS011;36472;52.170;20.884;2022-07-29T06:10:45;2.78;;;1.30;;
21274;SDS011;36472;52.170;20.884;2022-07-29T06:13:14;1.15;;;1.08;;
21274;SDS011;36472;52.170;20.884;2022-07-29T06:15:44;1.80;;;1.10;;
21274;SDS011;36472;52.170;20.884;2022-07-29T06:18:13;3.63;;;1.33;;
21274;SDS011;36472;52.170;20.884;2022-07-29T06:20:42;2.80;;;1.00;;
21274;SDS011;36472;52.170;20.884;2022-07-29T06:23:11;2.03;;;1.10;;
21274;SDS011;36472;52.170;20.884;2022-07-29T06:25:40;3.85;;;1.25;;
21274;SDS011;36472;52.170;20.884;2022-07-29T06:28:09;1.92;;;0.90;;
21274;SDS011;36472;52.170;20.884;2022-07-29T06:30:38;1.17;;;0.73;;
21274;SDS011;36472;52.170;20.884;2022-07-29T06:33:08;2.70;;;1.00;;
21274;SDS011;36472;52.170;20.884;2022-07-29T06:35:43;2.25;;;1.08;;
21274;SDS011;36472;52.170;20.884;2022-07-29T06:38:20;1.15;;;0.90;;
21274;SDS011;36472;52.170;20.884;2022-07-29T06:40:58;2.70;;;1.20;;
21274;SDS011;36472;52.170;20.884;2022-07-29T06:43:28;1.95;;;0.80;;
21274;SDS011;36472;52.170;20.884;2022-07-29T06:46:01;2.53;;;0.93;;
21274;SDS011;36472;52.170;20.884;2022-07-29T06:48:34;2.90;;;0.88;;
21274;SDS011;36472;52.170;20.884;2022-07-29T06:51:04;3.72;;;1.35;;
21274;SDS011;36472;52.170;20.884;2022-07-29T06:53:34;2.50;;;1.13;;
21274;SDS011;36472;52.170;20.884;2022-07-29T06:56:03;3.47;;;1.00;;
21274;SDS011;36472;52.170;20.884;2022-07-29T06:58:35;1.67;;;0.82;;
21274;SDS011;36472;52.170;20.884;2022-07-29T07:01:06;2.15;;;1.10;;
21274;SDS011;36472;52.170;20.884;2022-07-29T07:03:37;4.63;;;1.38;;
21274;SDS011;36472;52.170;20.884;2022-07-29T07:06:05;3.78;;;1.02;;
21274;SDS011;36472;52.170;20.884;2022-07-29T07:08:40;2.50;;;1.05;;
21274;SDS011;36472;52.170;20.884;2022-07-29T07:11:09;4.05;;;1.10;;
21274;SDS011;36472;52.170;20.884;2022-07-29T07:13:38;4.03;;;1.55;;
21274;SDS011;36472;52.170;20.884;2022-07-29T07:16:06;1.85;;;1.25;;
21274;SDS011;36472;52.170;20.884;2022-07-29T07:18:37;2.90;;;1.20;;
21274;SDS011;36472;52.170;20.884;2022-07-29T07:21:05;2.20;;;1.10;;
21274;SDS011;36472;52.170;20.884;2022-07-29T07:23:34;2.28;;;1.00;;
21274;SDS011;36472;52.170;20.884;2022-07-29T07:26:03;2.10;;;0.77;;
21274;SDS011;36472;52.170;20.884;2022-07-29T07:28:32;2.85;;;1.08;;
21274;SDS011;36472;52.170;20.884;2022-07-29T07:31:01;6.13;;;1.10;;
21274;SDS011;36472;52.170;20.884;2022-07-29T07:33:30;2.70;;;0.90;;
21274;SDS011;36472;52.170;20.884;2022-07-29T07:36:00;2.00;;;0.88;;
21274;SDS011;36472;52.170;20.884;2022-07-29T07:38:29;5.30;;;0.90;;
21274;SDS011;36472;52.170;20.884;2022-07-29T07:40:58;4.35;;;0.93;;
21274;SDS011;36472;52.170;20.884;2022-07-29T07:43:27;2.95;;;1.00;;
21274;SDS011;36472;52.170;20.884;2022-07-29T07:45:56;2.13;;;0.82;;
21274;SDS011;36472;52.170;20.884;2022-07-29T07:48:25;2.63;;;1.00;;
21274;SDS011;36472;52.170;20.884;2022-07-29T07:50:53;3.63;;;1.00;;
21274;SDS011;36472;52.170;20.884;2022-07-29T07:53:24;6.75;;;1.58;;
21274;SDS011;36472;52.170;20.884;2022-07-29T07:55:52;3.25;;;1.17;;
21274;SDS011;36472;52.170;20.884;2022-07-29T07:58:38;1.45;;;1.02;;
21274;SDS011;36472;52.170;20.884;2022-07-29T08:01:07;2.63;;;1.10;;
21274;SDS011;36472;52.170;20.884;2022-07-29T08:03:37;2.55;;;1.00;;
21274;SDS011;36472;52.170;20.884;2022-07-29T08:06:06;2.30;;;0.93;;
21274;SDS011;36472;52.170;20.884;2022-07-29T08:08:36;3.00;;;1.17;;
21274;SDS011;36472;52.170;20.884;2022-07-29T08:11:04;2.15;;;0.80;;
21274;SDS011;36472;52.170;20.884;2022-07-29T08:13:36;2.88;;;0.98;;
21274;SDS011;36472;52.170;20.884;2022-07-29T08:16:06;4.13;;;1.10;;
21274;SDS011;36472;52.170;20.884;2022-07-29T08:18:42;1.35;;;0.80;;
21274;SDS011;36472;52.170;20.884;2022-07-29T08:21:13;3.08;;;1.02;;
21274;SDS011;36472;52.170;20.884;2022-07-29T08:23:44;2.33;;;0.82;;
21274;SDS011;36472;52.170;20.884;2022-07-29T08:26:24;1.38;;;0.90;;
21274;SDS011;36472;52.170;20.884;2022-07-29T08:28:53;1.63;;;0.90;;
21274;SDS011;36472;52.170;20.884;2022-07-29T08:31:22;1.77;;;0.77;;
21274;SDS011;36472;52.170;20.884;2022-07-29T08:33:51;4.13;;;0.98;;
21274;SDS011;36472;52.170;20.884;2022-07-29T08:36:20;4.25;;;1.00;;
21274;SDS011;36472;52.170;20.884;2022-07-29T08:38:50;1.77;;;0.90;;
21274;SDS011;36472;52.170;20.884;2022-07-29T08:41:19;2.47;;;0.93;;
21274;SDS011;36472;52.170;20.884;2022-07-29T08:43:48;1.80;;;0.90;;
21274;SDS011;36472;52.170;20.884;2022-07-29T08:46:18;4.28;;;1.15;;
21274;SDS011;36472;52.170;20.884;2022-07-29T08:48:49;2.92;;;0.90;;
21274;SDS011;36472;52.170;20.884;2022-07-29T08:51:18;3.65;;;0.90;;
21274;SDS011;36472;52.170;20.884;2022-07-29T08:53:50;1.15;;;1.02;;
21274;SDS011;36472;52.170;20.884;2022-07-29T08:56:19;1.13;;;0.98;;
21274;SDS011;36472;52.170;20.884;2022-07-29T08:58:48;3.47;;;1.35;;
21274;SDS011;36472;52.170;20.884;2022-07-29T09:01:22;1.05;;;0.70;;
21274;SDS011;36472;52.170;20.884;2022-07-29T09:04:03;2.95;;;1.13;;
21274;SDS011;36472;52.170;20.884;2022-07-29T09:06:37;2.25;;;1.00;;
21274;SDS011;36472;52.170;20.884;2022-07-29T09:09:13;2.33;;;0.80;;
21274;SDS011;36472;52.170;20.884;2022-07-29T09:11:42;3.50;;;1.05;;
21274;SDS011;36472;52.170;20.884;2022-07-29T09:14:12;5.13;;;0.85;;
21274;SDS011;36472;52.170;20.884;2022-07-29T09:16:45;2.10;;;1.00;;
21274;SDS011;36472;52.170;20.884;2022-07-29T09:19:20;2.75;;;0.80;;
21274;SDS011;36472;52.170;20.884;2022-07-29T09:21:51;3.13;;;0.85;;
21274;SDS011;36472;52.170;20.884;2022-07-29T09:24:37;2.80;;;1.08;;
21274;SDS011;36472;52.170;20.884;2022-07-29T09:27:10;3.38;;;0.80;;
21274;SDS011;36472;52.170;20.884;2022-07-29T09:29:55;2.15;;;1.00;;
21274;SDS011;36472;52.170;20.884;2022-07-29T09:32:26;2.47;;;0.82;;
21274;SDS011;36472;52.170;20.884;2022-07-29T09:35:14;3.72;;;0.85;;
21274;SDS011;36472;52.170;20.884;2022-07-29T09:37:48;2.40;;;0.95;;
21274;SDS011;36472;52.170;20.884;2022-07-29T09:40:19;1.63;;;0.82;;
21274;SDS011;36472;52.170;20.884;2022-07-29T09:42:51;2.47;;;0.80;;
21274;SDS011;36472;52.170;20.884;2022-07-29T09:45:27;4.47;;;0.88;;
21274;SDS011;36472;52.170;20.884;2022-07-29T09:47:58;2.50;;;0.80;;
21274;SDS011;36472;52.170;20.884;2022-07-29T09:50:40;2.53;;;0.80;;
21274;SDS011;36472;52.170;20.884;2022-07-29T09:53:11;4.00;;;0.90;;
21274;SDS011;36472;52.170;20.884;2022-07-29T09:56:04;1.52;;;0.80;;
21274;SDS011;36472;52.170;20.884;2022-07-29T09:58:33;2.67;;;0.90;;
21274;SDS011;36472;52.170;20.884;2022-07-29T10:01:02;2.22;;;1.00;;
21274;SDS011;36472;52.170;20.884;2022-07-29T10:03:31;1.65;;;0.88;;
21274;SDS011;36472;52.170;20.884;2022-07-29T10:06:17;3.08;;;1.00;;
21274;SDS011;36472;52.170;20.884;2022-07-29T10:08:46;2.55;;;0.95;;
21274;SDS011;36472;52.170;20.884;2022-07-29T10:11:17;3.65;;;1.10;;
21274;SDS011;36472;52.170;20.884;2022-07-29T10:13:47;2.05;;;0.98;;
21274;SDS011;36472;52.170;20.884;2022-07-29T10:16:17;2.13;;;0.95;;
21274;SDS011;36472;52.170;20.884;2022-07-29T10:18:45;1.48;;;1.05;;
21274;SDS011;36472;52.170;20.884;2022-07-29T10:21:14;2.83;;;0.93;;
21274;SDS011;36472;52.170;20.884;2022-07-29T10:24:03;1.55;;;1.00;;
21274;SDS011;36472;52.170;20.884;2022-07-29T10:26:42;3.40;;;0.98;;
21274;SDS011;36472;52.170;20.884;2022-07-29T10:29:13;2.67;;;0.90;;
21274;SDS011;36472;52.170;20.884;2022-07-29T10:31:43;2.53;;;0.90;;
21274;SDS011;36472;52.170;20.884;2022-07-29T10:34:23;1.13;;;0.80;;
21274;SDS011;36472;52.170;20.884;2022-07-29T10:37:07;3.25;;;1.05;;
21274;SDS011;36472;52.170;20.884;2022-07-29T10:39:53;4.70;;;0.80;;
21274;SDS011;36472;52.170;20.884;2022-07-29T10:42:55;0.93;;;0.82;;
21274;SDS011;36472;52.170;20.884;2022-07-29T10:45:41;2.70;;;1.00;;
21274;SDS011;36472;52.170;20.884;2022-07-29T10:48:11;2.30;;;0.80;;
21274;SDS011;36472;52.170;20.884;2022-07-29T10:53:45;1.73;;;0.90;;
21274;SDS011;36472;52.170;20.884;2022-07-29T10:56:22;2.05;;;0.70;;
21274;SDS011;36472;52.170;20.884;2022-07-29T11:02:02;1.65;;;1.13;;
21274;SDS011;36472;52.170;20.884;2022-07-29T11:05:12;1.20;;;0.85;;
21274;SDS011;36472;52.170;20.884;2022-07-29T11:14:00;3.40;;;0.90;;
21274;SDS011;36472;52.170;20.884;2022-07-29T11:19:36;1.95;;;0.70;;
21274;SDS011;36472;52.170;20.884;2022-07-29T11:22:30;0.88;;;0.50;;
21274;SDS011;36472;52.170;20.884;2022-07-29T11:25:14;2.05;;;0.93;;
21274;SDS011;36472;52.170;20.884;2022-07-29T11:28:08;1.83;;;0.73;;
21274;SDS011;36472;52.170;20.884;2022-07-29T11:30:51;1.35;;;0.73;;
21274;SDS011;36472;52.170;20.884;2022-07-29T11:33:27;1.17;;;0.90;;
21274;SDS011;36472;52.170;20.884;2022-07-29T11:36:21;2.25;;;0.80;;
21274;SDS011;36472;52.170;20.884;2022-07-29T11:45:09;4.20;;;1.08;;
21274;SDS011;36472;52.170;20.884;2022-07-29T11:48:00;1.60;;;1.00;;
21274;SDS011;36472;52.170;20.884;2022-07-29T11:50:49;1.73;;;0.60;;
21274;SDS011;36472;52.170;20.884;2022-07-29T11:53:21;1.05;;;0.70;;
21274;SDS011;36472;52.170;20.884;2022-07-29T11:55:53;2.20;;;0.80;;
21274;SDS011;36472;52.170;20.884;2022-07-29T11:58:24;2.22;;;0.80;;
21274;SDS011;36472;52.170;20.884;2022-07-29T12:00:53;2.80;;;0.70;;
21274;SDS011;36472;52.170;20.884;2022-07-29T12:03:31;0.88;;;0.70;;
21274;SDS011;36472;52.170;20.884;2022-07-29T12:06:03;0.95;;;0.70;;
21274;SDS011;36472;52.170;20.884;2022-07-29T12:08:45;2.58;;;0.98;;
21274;SDS011;36472;52.170;20.884;2022-07-29T12:11:15;1.17;;;0.68;;
21274;SDS011;36472;52.170;20.884;2022-07-29T12:13:49;1.10;;;0.70;;
21274;SDS011;36472;52.170;20.884;2022-07-29T12:16:19;1.40;;;0.80;;
21274;SDS011;36472;52.170;20.884;2022-07-29T12:18:56;2.63;;;0.88;;
21274;SDS011;36472;52.170;20.884;2022-07-29T12:21:26;3.03;;;0.90;;
21274;SDS011;36472;52.170;20.884;2022-07-29T12:23:56;1.75;;;0.82;;
21274;SDS011;36472;52.170;20.884;2022-07-29T12:26:35;0.70;;;0.70;;
21274;SDS011;36472;52.170;20.884;2022-07-29T12:29:16;1.80;;;0.60;;
21274;SDS011;36472;52.170;20.884;2022-07-29T12:32:01;2.30;;;0.80;;
21274;SDS011;36472;52.170;20.884;2022-07-29T12:34:45;2.25;;;0.70;;
21274;SDS011;36472;52.170;20.884;2022-07-29T12:37:14;2.67;;;1.00;;
21274;SDS011;36472;52.170;20.884;2022-07-29T12:39:44;2.95;;;0.60;;
21274;SDS011;36472;52.170;20.884;2022-07-29T12:42:14;2.38;;;0.60;;
21274;SDS011;36472;52.170;20.884;2022-07-29T12:44:45;1.52;;;0.80;;
21274;SDS011;36472;52.170;20.884;2022-07-29T12:47:17;1.73;;;0.95;;
21274;SDS011;36472;52.170;20.884;2022-07-29T12:49:47;1.45;;;0.73;;
21274;SDS011;36472;52.170;20.884;2022-07-29T12:52:24;2.50;;;0.75;;
21274;SDS011;36472;52.170;20.884;2022-07-29T12:55:00;1.38;;;0.70;;
21274;SDS011;36472;52.170;20.884;2022-07-29T12:57:32;2.70;;;1.05;;
21274;SDS011;36472;52.170;20.884;2022-07-29T13:00:13;1.98;;;0.85;;
21274;SDS011;36472;52.170;20.884;2022-07-29T13:02:44;1.52;;;0.80;;
21274;SDS011;36472;52.170;20.884;2022-07-29T13:05:23;5.70;;;0.80;;
21274;SDS011;36472;52.170;20.884;2022-07-29T13:08:14;1.30;;;0.68;;
21274;SDS011;36472;52.170;20.884;2022-07-29T13:10:49;6.57;;;0.85;;
21274;SDS011;36472;52.170;20.884;2022-07-29T13:13:18;2.72;;;0.88;;
21274;SDS011;36472;52.170;20.884;2022-07-29T13:15:46;2.08;;;0.80;;
21274;SDS011;36472;52.170;20.884;2022-07-29T13:18:35;2.33;;;1.13;;
21274;SDS011;36472;52.170;20.884;2022-07-29T13:21:10;1.50;;;0.88;;
21274;SDS011;36472;52.170;20.884;2022-07-29T13:23:40;1.63;;;0.77;;
21274;SDS011;36472;52.170;20.884;2022-07-29T13:26:11;1.50;;;0.80;;
21274;SDS011;36472;52.170;20.884;2022-07-29T13:28:40;1.08;;;0.73;;
21274;SDS011;36472;52.170;20.884;2022-07-29T13:31:10;2.63;;;0.90;;
21274;SDS011;36472;52.170;20.884;2022-07-29T13:33:39;1.90;;;0.80;;
21274;SDS011;36472;52.170;20.884;2022-07-29T13:36:07;3.45;;;0.93;;
21274;SDS011;36472;52.170;20.884;2022-07-29T13:38:36;1.30;;;0.75;;
21274;SDS011;36472;52.170;20.884;2022-07-29T13:41:05;2.97;;;0.70;;
21274;SDS011;36472;52.170;20.884;2022-07-29T13:43:35;1.00;;;0.70;;
21274;SDS011;36472;52.170;20.884;2022-07-29T13:46:04;3.67;;;0.82;;
21274;SDS011;36472;52.170;20.884;2022-07-29T13:48:33;1.13;;;0.63;;
21274;SDS011;36472;52.170;20.884;2022-07-29T13:51:02;2.20;;;0.90;;
21274;SDS011;36472;52.170;20.884;2022-07-29T13:53:31;1.45;;;0.82;;
21274;SDS011;36472;52.170;20.884;2022-07-29T13:56:00;2.17;;;0.80;;
21274;SDS011;36472;52.170;20.884;2022-07-29T13:58:28;1.08;;;0.60;;
21274;SDS011;36472;52.170;20.884;2022-07-29T14:00:58;0.60;;;0.60;;
21274;SDS011;36472;52.170;20.884;2022-07-29T14:03:28;1.35;;;0.70;;
21274;SDS011;36472;52.170;20.884;2022-07-29T14:05:57;2.05;;;0.70;;
21274;SDS011;36472;52.170;20.884;2022-07-29T14:08:27;4.75;;;0.90;;
21274;SDS011;36472;52.170;20.884;2022-07-29T14:10:55;1.20;;;0.80;;
21274;SDS011;36472;52.170;20.884;2022-07-29T14:13:24;0.90;;;0.70;;
21274;SDS011;36472;52.170;20.884;2022-07-29T14:15:53;1.88;;;0.88;;
21274;SDS011;36472;52.170;20.884;2022-07-29T14:18:23;2.47;;;0.70;;
21274;SDS011;36472;52.170;20.884;2022-07-29T14:20:52;2.03;;;0.80;;
21274;SDS011;36472;52.170;20.884;2022-07-29T14:23:20;1.27;;;0.57;;
21274;SDS011;36472;52.170;20.884;2022-07-29T14:25:49;2.20;;;0.88;;
21274;SDS011;36472;52.170;20.884;2022-07-29T14:28:19;1.65;;;0.88;;
21274;SDS011;36472;52.170;20.884;2022-07-29T14:30:47;0.95;;;0.70;;
21274;SDS011;36472;52.170;20.884;2022-07-29T14:33:16;1.27;;;0.77;;
21274;SDS011;36472;52.170;20.884;2022-07-29T14:35:46;1.08;;;0.85;;
21274;SDS011;36472;52.170;20.884;2022-07-29T14:38:15;4.43;;;1.02;;
21274;SDS011;36472;52.170;20.884;2022-07-29T14:40:44;1.42;;;0.80;;
21274;SDS011;36472;52.170;20.884;2022-07-29T14:43:16;2.28;;;0.80;;
21274;SDS011;36472;52.170;20.884;2022-07-29T14:45:47;0.93;;;0.77;;
21274;SDS011;36472;52.170;20.884;2022-07-29T14:48:16;2.58;;;0.70;;
21274;SDS011;36472;52.170;20.884;2022-07-29T14:50:44;1.67;;;0.73;;
21274;SDS011;36472;52.170;20.884;2022-07-29T14:53:14;2.22;;;0.93;;
21274;SDS011;36472;52.170;20.884;2022-07-29T14:55:43;1.65;;;0.85;;
21274;SDS011;36472;52.170;20.884;2022-07-29T14:58:13;2.25;;;0.82;;
21274;SDS011;36472;52.170;20.884;2022-07-29T15:00:42;0.82;;;0.65;;
21274;SDS011;36472;52.170;20.884;2022-07-29T15:03:11;0.90;;;0.70;;
21274;SDS011;36472;52.170;20.884;2022-07-29T15:05:51;0.73;;;0.70;;
21274;SDS011;36472;52.170;20.884;2022-07-29T15:08:20;1.40;;;0.70;;
21274;SDS011;36472;52.170;20.884;2022-07-29T15:10:49;3.30;;;0.93;;
21274;SDS011;36472;52.170;20.884;2022-07-29T15:13:20;1.45;;;0.80;;
21274;SDS011;36472;52.170;20.884;2022-07-29T15:15:49;2.63;;;0.93;;
21274;SDS011;36472;52.170;20.884;2022-07-29T15:18:22;2.28;;;0.77;;
21274;SDS011;36472;52.170;20.884;2022-07-29T15:20:52;0.65;;;0.60;;
21274;SDS011;36472;52.170;20.884;2022-07-29T15:23:21;1.50;;;1.00;;
21274;SDS011;36472;52.170;20.884;2022-07-29T15:25:50;2.15;;;0.80;;
21274;SDS011;36472;52.170;20.884;2022-07-29T15:28:18;0.90;;;0.70;;
21274;SDS011;36472;52.170;20.884;2022-07-29T15:30:47;2.85;;;0.70;;